Date,TemperatureHighF,TemperatureAvgF,TemperatureLowF,DewpointHighF,DewpointAvgF,DewpointLowF,HumidityHigh,HumidityAvg,HumidityLow,PressureMaxIn,PressureMinIn,WindSpeedMaxMPH,WindSpeedAvgMPH,GustSpeedMaxMPH,PrecipitationSumIn
2013-2-1,69,51,37,53,44,35,95,80,51,30.24,30.13,3,0,0,0.01
2013-2-2,63,50,41,53,45,39,95,85,66,30.30,30.21,3,0,0,0.00
2013-2-3,68,51,37,51,44,35,96,79,52,30.24,30.13,6,0,0,0.01
2013-2-4,71,51,37,52,44,35,96,79,47,30.19,30.06,3,0,0,0.01
2013-2-5,59,49,38,48,44,36,96,83,62,30.13,30.05,10,2,0,0.01
2013-2-6,69,52,42,49,43,39,92,75,41,30.20,30.12,6,1,0,0.00
2013-2-7,61,48,40,49,42,37,94,78,49,30.18,30.00,6,1,0,0.01
2013-2-8,60,46,39,44,38,32,93,75,37,30.02,29.92,7,1,0,0.00
2013-2-9,64,46,34,38,32,28,82,60,30,30.10,29.97,8,1,0,0.00
2013-2-10,67,45,32,42,35,29,92,70,36,30.14,30.02,5,0,0,0.00
2013-2-11,69,50,33,47,36,30,90,63,27,30.24,30.06,3,0,0,0.00
2013-2-12,70,48,34,44,37,31,93,68,35,30.38,30.24,4,0,0,0.00
2013-2-13,70,49,34,48,39,31,93,71,37,30.35,30.21,4,0,0,0.00
2013-2-14,75,52,37,49,42,34,95,71,35,30.27,30.16,4,0,0,0.00
2013-2-15,76,54,39,51,44,36,94,71,36,30.30,30.22,3,0,0,0.00
2013-2-16,74,52,39,52,44,37,95,75,40,30.25,30.02,3,0,0,0.00
2013-2-17,71,51,40,48,42,37,94,73,36,30.05,29.95,7,1,0,0.04
2013-2-18,58,47,38,47,40,35,93,78,60,30.02,29.92,12,2,0,0.17
2013-2-19,52,43,38,43,38,34,91,81,68,29.97,29.74,9,1,0,0.24
2013-2-20,61,46,35,42,37,32,91,73,39,30.05,29.83,10,1,0,0.00
2013-2-21,61,47,36,45,37,33,94,72,36,30.16,30.04,9,1,0,0.00
2013-2-22,65,50,35,44,39,32,93,70,41,30.25,30.16,8,0,0,0.00
2013-2-23,61,51,41,45,37,28,90,61,30,30.24,30.14,10,2,12,0.00
2013-2-24,64,49,40,36,32,28,74,53,29,30.26,30.16,8,1,0,0.00
2013-2-25,65,49,35,46,38,31,88,67,39,30.28,30.16,8,1,0,0.00
2013-2-26,67,51,38,39,33,26,91,55,23,30.22,30.11,11,1,0,0.00
2013-2-27,69,52,37,44,37,32,86,61,28,30.35,30.19,4,0,0,0.00
2013-2-28,71,56,42,52,46,37,89,71,43,30.44,30.35,6,0,0,0.00